Time;durP1;ratioP1;P1;durP2;ratioP2;P2;SDS_P1;SDS_P2;PMS_P1;PMS_P2;Temp;Humidity;BMP_temperature;BMP_pressure;BME280_temperature;BME280_humidity;BME280_pressure;Samples;Min_cycle;Max_cycle;Signal;HPM_P1;HPM_P2
2023/12/11 00:02:34;;;;;;;;;;;;;;;25.73;41.31;93604.56;4934807;29;7193;-64
2023/12/11 00:05:00;;;;;;;;;;;;;;;25.71;41.10;93606.41;4933656;29;7258;-64
2023/12/11 00:07:36;;;;;;;;;;;;;;;25.76;41.08;93591.75;4929364;29;7326;-64
2023/12/11 00:10:11;;;;;;;;;;;;;;;25.77;41.08;93591.25;4924145;29;7082;-64
2023/12/11 00:12:40;;;;;;;;;;;;;;;25.81;41.17;93575.13;4937674;28;7242;-64
2023/12/11 00:15:16;;;;;;;;;;;;;;;25.79;40.57;93583.19;4968930;28;7054;-64
2023/12/11 00:18:01;;;;;;;;;;;;;;;25.78;40.51;93575.44;4971523;28;7221;-64
2023/12/11 00:20:29;;;;;;;;;;;;;;;25.79;40.99;93579.69;4961922;28;7585;-64
2023/12/11 00:23:06;;;;;;;;;;;;;;;25.77;41.22;93558.19;4958144;28;8591;-64
2023/12/11 00:25:47;;;;;;;;;;;;;;;25.81;41.04;93555.84;4973785;28;7192;-63
2023/12/11 00:28:32;;;;;;;;;;;;;;;25.82;40.88;93557.31;4992580;28;9107;-64
2023/12/11 00:31:49;;;;;;;;;;;;;;;25.80;41.06;93562.63;5049520;28;9185;-64
2023/12/11 00:34:24;;;;;;;;;;;;;;;25.80;40.89;93576.38;5034058;28;7453;-63
2023/12/11 00:36:53;;;;;;;;;;;;;;;25.81;40.98;93591.66;5049812;28;7131;-64
2023/12/11 00:39:20;;;;;;;;;;;;;;;25.84;40.46;93593.34;5027370;28;6978;-64
2023/12/11 00:41:56;;;;;;;;;;;;;;;25.81;40.89;93593.66;5049360;28;7250;-63
2023/12/11 00:44:32;;;;;;;;;;;;;;;25.79;40.43;93596.97;5052436;28;7140;-63
2023/12/11 00:47:04;;;;;;;;;;;;;;;25.79;40.42;93591.44;5026382;28;8299;-63
2023/12/11 00:49:42;;;;;;;;;;;;;;;25.77;40.85;93598.75;5034544;28;7188;-63
2023/12/11 00:52:23;;;;;;;;;;;;;;;25.72;40.84;93578.31;5017826;28;6998;-64
2023/12/11 00:55:04;;;;;;;;;;;;;;;25.75;40.31;93590.28;5035476;28;9156;-63
2023/12/11 00:57:49;;;;;;;;;;;;;;;25.72;41.17;93597.59;5038572;28;6929;-59
2023/12/11 01:00:15;;;;;;;;;;;;;;;25.68;40.66;93588.91;5038234;28;7247;-59
2023/12/11 01:02:48;;;;;;;;;;;;;;;25.71;40.70;93589.88;5056859;28;7043;-58
2023/12/11 01:05:22;;;;;;;;;;;;;;;25.69;41.31;93586.88;5044213;28;7072;-59
2023/12/11 01:07:58;;;;;;;;;;;;;;;25.67;40.71;93581.91;5033246;28;6908;-59
2023/12/11 01:10:29;;;;;;;;;;;;;;;25.66;40.51;93594.22;5041606;28;7198;-59
2023/12/11 01:12:55;;;;;;;;;;;;;;;25.63;40.52;93602.78;5054515;28;6992;-59
2023/12/11 01:15:21;;;;;;;;;;;;;;;25.57;40.47;93619.41;5050362;28;9123;-59
2023/12/11 01:17:49;;;;;;;;;;;;;;;25.54;41.21;93625.22;5061823;28;7344;-59
2023/12/11 01:20:17;;;;;;;;;;;;;;;25.51;41.18;93624.28;5053457;28;8515;-59
2023/12/11 01:22:43;;;;;;;;;;;;;;;25.48;41.35;93611.56;5072964;28;6981;-59
2023/12/11 01:25:48;;;;;;;;;;;;;;;25.52;40.95;93625.75;5052277;28;7261;-59
2023/12/11 01:28:23;;;;;;;;;;;;;;;25.52;40.93;93630.50;5070470;28;7734;-59
2023/12/11 01:31:41;;;;;;;;;;;;;;;25.50;41.45;93630.31;5048021;28;7087;-59
2023/12/11 01:34:58;;;;;;;;;;;;;;;25.50;41.66;93625.53;4974399;28;7264;-59
2023/12/11 01:37:49;;;;;;;;;;;;;;;25.49;40.63;93615.78;4935468;28;8451;-59
2023/12/11 01:40:35;;;;;;;;;;;;;;;25.48;40.60;93611.56;4922544;28;7300;-59
2023/12/11 01:43:21;;;;;;;;;;;;;;;25.48;40.84;93622.59;4920899;29;9063;-59
2023/12/11 01:46:18;;;;;;;;;;;;;;;25.48;41.31;93606.06;4932245;28;7514;-59
2023/12/11 01:48:44;;;;;;;;;;;;;;;25.47;41.09;93615.56;4934250;29;7190;-59
2023/12/11 01:51:18;;;;;;;;;;;;;;;25.48;41.17;93625.34;4925982;29;9231;-59
2023/12/11 01:53:55;;;;;;;;;;;;;;;25.48;41.52;93632.84;4930722;29;7270;-58
2023/12/11 01:56:50;;;;;;;;;;;;;;;25.48;41.56;93636.34;4933678;29;7288;-59
2023/12/11 01:59:31;;;;;;;;;;;;;;;25.47;41.57;93632.09;4932369;29;7074;-59
2023/12/11 02:02:06;;;;;;;;;;;;;;;25.47;41.02;93631.38;4932006;29;7242;-60
2023/12/11 02:05:03;;;;;;;;;;;;;;;25.46;41.44;93616.88;4922184;29;7261;-59
2023/12/11 02:07:50;;;;;;;;;;;;;;;25.46;41.19;93622.38;4893468;29;8651;-61
2023/12/11 02:10:35;;;;;;;;;;;;;;;25.46;41.19;93625.13;4922117;29;6982;-62
2023/12/11 02:13:21;;;;;;;;;;;;;;;25.46;41.13;93636.13;4956104;28;6941;-61
2023/12/11 02:15:51;;;;;;;;;;;;;;;25.45;40.95;93639.44;5002995;28;9529;-61
2023/12/11 02:18:30;;;;;;;;;;;;;;;25.44;40.79;93630.41;5001665;28;7554;-61
2023/12/11 02:20:58;;;;;;;;;;;;;;;25.44;40.89;93627.66;5004097;28;8995;-61
2023/12/11 02:23:33;;;;;;;;;;;;;;;25.44;41.43;93624.91;4994844;28;7172;-61
2023/12/11 02:26:37;;;;;;;;;;;;;;;25.47;41.23;93615.56;5000756;28;6990;-61
2023/12/11 02:29:03;;;;;;;;;;;;;;;25.50;40.70;93614.53;5016925;28;7158;-61
2023/12/11 02:31:41;;;;;;;;;;;;;;;25.50;40.41;93606.28;5009251;28;7253;-61
2023/12/11 02:34:22;;;;;;;;;;;;;;;25.51;41.17;93598.75;5010192;28;7406;-61
2023/12/11 02:36:48;;;;;;;;;;;;;;;25.52;40.29;93606.47;5010948;28;9195;-61
2023/12/11 02:39:24;;;;;;;;;;;;;;;25.47;41.14;93601.81;5021844;28;7169;-61
2023/12/11 02:41:51;;;;;;;;;;;;;;;25.49;41.03;93601.31;5002002;28;7063;-61
2023/12/11 02:44:17;;;;;;;;;;;;;;;25.48;40.80;93603.31;5045939;28;9106;-61
2023/12/11 02:47:07;;;;;;;;;;;;;;;25.48;41.22;93606.06;5055019;28;6982;-61
2023/12/11 02:50:06;;;;;;;;;;;;;;;25.44;41.38;93600.13;5043443;28;9551;-61
2023/12/11 02:52:41;;;;;;;;;;;;;;;25.42;40.54;93588.91;4958936;28;7174;-61
2023/12/11 02:55:09;;;;;;;;;;;;;;;25.45;40.45;93590.59;4968117;28;6856;-61
2023/12/11 02:57:44;;;;;;;;;;;;;;;25.42;41.28;93586.16;4968288;28;7409;-61
2023/12/11 03:00:30;;;;;;;;;;;;;;;25.43;40.37;93604.16;4969488;28;7388;-61
2023/12/11 03:03:28;;;;;;;;;;;;;;;25.43;41.06;93595.88;4974961;28;7250;-61
2023/12/11 03:06:18;;;;;;;;;;;;;;;25.43;40.94;93595.88;4963475;28;7226;-61
2023/12/11 03:08:47;;;;;;;;;;;;;;;25.41;40.71;93598.41;4974592;28;9046;-61
2023/12/11 03:11:44;;;;;;;;;;;;;;;25.40;40.93;93592.16;4957160;28;7177;-61
2023/12/11 03:14:19;;;;;;;;;;;;;;;25.40;40.47;93580.41;4945855;28;7248;-61
2023/12/11 03:16:48;;;;;;;;;;;;;;;25.39;41.14;93590.69;4940651;28;7002;-55
2023/12/11 03:19:24;;;;;;;;;;;;;;;25.42;40.75;93597.16;4952616;28;7468;-54
2023/12/11 03:21:55;;;;;;;;;;;;;;;25.42;41.28;93595.13;4941559;28;7389;-55
2023/12/11 03:24:23;;;;;;;;;;;;;;;25.44;40.94;93591.88;4936401;28;6986;-55
2023/12/11 03:26:50;;;;;;;;;;;;;;;25.39;41.24;93592.69;4941081;28;7211;-55
2023/12/11 03:29:30;;;;;;;;;;;;;;;25.40;40.95;93594.19;5038870;28;9716;-55
2023/12/11 03:32:05;;;;;;;;;;;;;;;25.40;41.01;93610.69;5052531;28;8054;-54
2023/12/11 03:34:33;;;;;;;;;;;;;;;25.39;40.76;93609.19;5041060;28;7676;-55
2023/12/11 03:37:14;;;;;;;;;;;;;;;25.41;41.29;93595.66;5059627;28;7023;-55
2023/12/11 03:39:42;;;;;;;;;;;;;;;25.41;41.16;93601.16;5052290;28;7643;-55
2023/12/11 03:42:10;;;;;;;;;;;;;;;25.39;40.96;93596.19;5031673;28;7201;-55
2023/12/11 03:44:39;;;;;;;;;;;;;;;25.38;40.96;93597.44;5046178;28;9447;-55
2023/12/11 03:47:21;;;;;;;;;;;;;;;25.39;40.38;93589.94;5036575;28;9219;-55
2023/12/11 03:49:55;;;;;;;;;;;;;;;25.40;41.11;93583.16;5053091;28;9247;-55
2023/12/11 03:52:22;;;;;;;;;;;;;;;25.37;41.23;93581.47;5067737;28;7235;-55
2023/12/11 03:54:53;;;;;;;;;;;;;;;25.37;40.45;93567.69;5055564;28;9094;-55
2023/12/11 03:57:39;;;;;;;;;;;;;;;25.42;40.82;93542.09;5023522;28;9270;-55
2023/12/11 04:00:11;;;;;;;;;;;;;;;25.46;40.45;93541.78;5060212;28;7016;-55
2023/12/11 04:03:01;;;;;;;;;;;;;;;25.44;40.26;93536.81;5065147;28;9193;-55
2023/12/11 04:05:27;;;;;;;;;;;;;;;25.41;41.13;93518.56;5068381;28;7268;-54
2023/12/11 04:07:57;;;;;;;;;;;;;;;25.40;40.82;93519.84;5059486;28;9492;-54
2023/12/11 04:10:26;;;;;;;;;;;;;;;25.43;41.00;93527.81;5068441;28;8258;-55
2023/12/11 04:13:02;;;;;;;;;;;;;;;25.44;40.55;93520.28;5065316;28;7222;-54
2023/12/11 04:15:30;;;;;;;;;;;;;;;25.44;40.50;93509.28;5051335;28;7311;-55
2023/12/11 04:17:58;;;;;;;;;;;;;;;25.39;40.49;93521.09;5053342;28;7251;-54
2023/12/11 04:20:28;;;;;;;;;;;;;;;25.40;40.68;93528.09;5048541;28;9126;-54
2023/12/11 04:22:56;;;;;;;;;;;;;;;25.40;40.68;93523.31;5052200;28;9195;-55
2023/12/11 04:25:32;;;;;;;;;;;;;;;25.38;40.66;93517.59;5041896;28;7236;-59
2023/12/11 04:28:10;;;;;;;;;;;;;;;25.39;40.31;93521.84;5043467;28;7740;-59
2023/12/11 04:30:50;;;;;;;;;;;;;;;25.41;40.64;93518.56;5063052;28;7240;-59
2023/12/11 04:33:17;;;;;;;;;;;;;;;25.40;41.30;93520.56;5044236;28;7422;-59
2023/12/11 04:35:44;;;;;;;;;;;;;;;25.37;40.27;93518.91;5048597;28;9786;-59
2023/12/11 04:38:11;;;;;;;;;;;;;;;25.40;40.99;93525.34;5054841;28;7174;-59
2023/12/11 04:40:39;;;;;;;;;;;;;;;25.39;40.26;93529.38;5048842;28;7257;-59
2023/12/11 04:43:11;;;;;;;;;;;;;;;25.39;40.89;93532.13;5051279;28;7044;-59
2023/12/11 04:45:49;;;;;;;;;;;;;;;25.40;40.31;93533.63;5076293;28;7793;-59
2023/12/11 04:48:21;;;;;;;;;;;;;;;25.40;40.75;93522.59;5041523;28;9506;-59
2023/12/11 04:50:47;;;;;;;;;;;;;;;25.39;41.13;93530.13;5042865;28;9210;-60
2023/12/11 04:53:47;;;;;;;;;;;;;;;25.38;40.34;93533.41;5053631;28;8773;-59
2023/12/11 04:56:15;;;;;;;;;;;;;;;25.36;40.75;93533.91;5014299;28;7717;-59
2023/12/11 04:58:42;;;;;;;;;;;;;;;25.38;40.57;93525.16;5026034;28;7651;-59
2023/12/11 05:01:14;;;;;;;;;;;;;;;25.38;41.01;93525.88;5016106;28;9067;-58
2023/12/11 05:03:40;;;;;;;;;;;;;;;25.38;40.78;93536.16;4997328;28;8625;-59
2023/12/11 05:06:06;;;;;;;;;;;;;;;25.41;40.60;93540.59;5026625;28;7226;-59
2023/12/11 05:08:32;;;;;;;;;;;;;;;25.41;40.96;93543.34;5022357;28;8694;-59
2023/12/11 05:11:01;;;;;;;;;;;;;;;25.42;40.16;93542.09;5018789;28;8513;-59
2023/12/11 05:13:46;;;;;;;;;;;;;;;25.42;41.18;93550.38;5032587;28;8729;-59
2023/12/11 05:16:12;;;;;;;;;;;;;;;25.41;40.52;93544.09;5007287;28;7275;-58
2023/12/11 05:18:49;;;;;;;;;;;;;;;25.43;40.39;93544.31;5024121;28;7077;-59
2023/12/11 05:21:25;;;;;;;;;;;;;;;25.45;40.66;93541.03;5027274;28;9182;-59
2023/12/11 05:23:55;;;;;;;;;;;;;;;25.51;40.37;93549.94;5023451;28;7184;-59
2023/12/11 05:26:29;;;;;;;;;;;;;;;25.60;39.82;93540.50;5007659;28;7222;-58
2023/12/11 05:29:00;;;;;;;;;;;;;;;25.64;39.62;93535.44;5010065;28;7261;-59
2023/12/11 05:31:39;;;;;;;;;;;;;;;25.66;40.11;93535.63;5039427;28;6991;-59
2023/12/11 05:34:07;;;;;;;;;;;;;;;25.69;40.31;93540.06;5054930;28;7008;-59
2023/12/11 05:36:33;;;;;;;;;;;;;;;25.69;39.95;93540.06;5069717;28;7332;-54
2023/12/11 05:39:00;;;;;;;;;;;;;;;25.72;39.82;93534.25;5046561;28;7207;-54
2023/12/11 05:41:30;;;;;;;;;;;;;;;25.72;39.83;93519.72;5050492;28;9779;-54
2023/12/11 05:44:05;;;;;;;;;;;;;;;25.69;40.42;93520.78;5059726;28;7412;-53
2023/12/11 05:46:33;;;;;;;;;;;;;;;25.70;40.28;93525.03;5053671;28;7051;-51
2023/12/11 05:49:02;;;;;;;;;;;;;;;25.75;40.37;93513.88;5052052;28;9275;-54
2023/12/11 05:51:32;;;;;;;;;;;;;;;25.78;40.10;93496.31;5059391;28;6960;-54
2023/12/11 05:54:00;;;;;;;;;;;;;;;25.81;40.18;93498.00;5060313;28;7069;-54
2023/12/11 05:56:30;;;;;;;;;;;;;;;25.78;40.31;93490.03;5064232;28;7201;-54
2023/12/11 05:58:58;;;;;;;;;;;;;;;25.72;40.45;93492.19;5049854;28;9149;-54
2023/12/11 06:01:27;;;;;;;;;;;;;;;25.73;39.96;93494.41;5059925;28;7183;-53
2023/12/11 06:03:53;;;;;;;;;;;;;;;25.73;40.38;93482.66;5061833;28;9194;-53
2023/12/11 06:06:19;;;;;;;;;;;;;;;25.76;39.82;93482.31;5049171;28;7939;-54
2023/12/11 06:08:47;;;;;;;;;;;;;;;25.80;40.50;93496.50;5043947;28;7845;-54
2023/12/11 06:11:13;;;;;;;;;;;;;;;25.81;40.25;93495.25;5041381;28;7079;-53
2023/12/11 06:13:40;;;;;;;;;;;;;;;25.80;41.06;93495.75;5040791;28;9339;-54
2023/12/11 06:16:08;;;;;;;;;;;;;;;25.81;40.24;93486.97;5040996;28;9295;-53
2023/12/11 06:18:37;;;;;;;;;;;;;;;25.84;40.91;93480.38;5050016;28;7418;-53
2023/12/11 06:21:03;;;;;;;;;;;;;;;25.88;40.39;93485.59;5072000;28;8060;-53
2023/12/11 06:23:31;;;;;;;;;;;;;;;25.92;40.05;93477.72;5065079;28;6986;-54
2023/12/11 06:26:03;;;;;;;;;;;;;;;25.95;40.31;93471.13;5063492;28;7079;-53
2023/12/11 06:28:30;;;;;;;;;;;;;;;25.94;40.73;93464.16;5052884;28;7267;-54
2023/12/11 06:30:58;;;;;;;;;;;;;;;25.93;40.55;93463.41;5048726;28;9121;-54
2023/12/11 06:33:27;;;;;;;;;;;;;;;25.93;40.71;93457.91;5058127;28;6927;-54
2023/12/11 06:35:58;;;;;;;;;;;;;;;25.92;40.42;93467.47;5053514;28;7281;-54
2023/12/11 06:38:26;;;;;;;;;;;;;;;25.92;40.04;93456.44;5053777;28;7032;-53
2023/12/11 06:40:55;;;;;;;;;;;;;;;25.94;40.00;93464.16;5046167;28;8764;-54
2023/12/11 06:43:21;;;;;;;;;;;;;;;25.92;39.43;93461.94;5055718;28;6991;-54
2023/12/11 06:45:47;;;;;;;;;;;;;;;25.93;39.88;93457.16;5038920;28;8660;-55
2023/12/11 06:48:15;;;;;;;;;;;;;;;25.93;39.52;93452.38;5044115;28;9065;-54
2023/12/11 06:50:43;;;;;;;;;;;;;;;25.91;39.71;93459.72;5056200;28;9310;-54
2023/12/11 06:53:13;;;;;;;;;;;;;;;25.86;39.91;93452.31;5046274;28;8080;-54
2023/12/11 06:55:41;;;;;;;;;;;;;;;25.81;39.44;93447.66;5065367;28;6984;-55
2023/12/11 06:58:10;;;;;;;;;;;;;;;25.85;40.07;93446.06;5045580;28;7246;-54
2023/12/11 07:00:36;;;;;;;;;;;;;;;25.76;39.74;93432.75;5055573;28;7051;-54
2023/12/11 07:03:14;;;;;;;;;;;;;;;25.75;40.65;93422.28;5049192;28;9089;-54
2023/12/11 07:05:46;;;;;;;;;;;;;;;25.72;39.88;93420.56;5051989;28;7239;-54
2023/12/11 07:08:14;;;;;;;;;;;;;;;25.72;39.80;93415.81;5052258;28;7031;-54
2023/12/11 07:10:43;;;;;;;;;;;;;;;25.78;39.55;93402.66;5041563;28;7802;-54
2023/12/11 07:13:09;;;;;;;;;;;;;;;25.81;40.26;93398.84;5056658;28;8051;-54
2023/12/11 07:15:35;;;;;;;;;;;;;;;25.81;39.84;93404.34;5057562;28;7084;-54
2023/12/11 07:18:03;;;;;;;;;;;;;;;25.80;39.72;93416.63;5062382;28;7115;-54
2023/12/11 07:20:33;;;;;;;;;;;;;;;25.81;40.29;93412.59;5040938;28;9033;-54
2023/12/11 07:23:02;;;;;;;;;;;;;;;25.82;39.68;93419.59;5041175;28;7032;-55
2023/12/11 07:25:32;;;;;;;;;;;;;;;25.86;39.91;93424.78;5057861;28;7283;-55
2023/12/11 07:28:06;;;;;;;;;;;;;;;25.85;40.61;93424.03;5069028;28;9152;-55
2023/12/11 07:30:51;;;;;;;;;;;;;;;25.84;39.88;93422.53;5072198;28;6995;-55
2023/12/11 07:33:24;;;;;;;;;;;;;;;25.84;40.16;93430.81;5065502;28;9108;-55
2023/12/11 07:35:49;;;;;;;;;;;;;;;25.78;40.00;93413.66;5056502;28;7160;-54
2023/12/11 07:38:18;;;;;;;;;;;;;;;25.73;40.11;93422.78;5054024;28;7211;-55
2023/12/11 07:40:45;;;;;;;;;;;;;;;25.75;40.79;93431.25;5070693;28;7070;-55
2023/12/11 07:43:11;;;;;;;;;;;;;;;25.77;40.74;93439.75;5080981;28;7227;-55
2023/12/11 07:45:45;;;;;;;;;;;;;;;25.76;40.26;93454.78;5059207;28;7202;-55
2023/12/11 07:48:23;;;;;;;;;;;;;;;25.79;40.23;93450.97;5054469;28;9082;-55
2023/12/11 07:50:52;;;;;;;;;;;;;;;25.78;40.08;93448.72;5045563;28;7835;-55
2023/12/11 07:53:33;;;;;;;;;;;;;;;25.80;40.37;93449.69;5065146;28;8758;-55
2023/12/11 07:56:23;;;;;;;;;;;;;;;25.87;39.84;93437.25;5061697;28;7274;-62
2023/12/11 07:59:10;;;;;;;;;;;;;;;25.90;40.40;93447.22;5052198;28;7139;-62
2023/12/11 08:01:43;;;;;;;;;;;;;;;25.89;39.78;93463.00;5067767;28;8729;-61
2023/12/11 08:04:13;;;;;;;;;;;;;;;25.90;40.81;93464.47;5056206;28;7208;-62
2023/12/11 08:06:44;;;;;;;;;;;;;;;25.88;39.93;93464.25;5067792;28;7007;-62
2023/12/11 08:09:11;;;;;;;;;;;;;;;25.91;39.73;93452.19;5067822;28;7401;-62
2023/12/11 08:11:56;;;;;;;;;;;;;;;25.90;39.91;93453.44;5053947;28;7300;-62
2023/12/11 08:14:25;;;;;;;;;;;;;;;25.90;39.99;93464.47;5069933;28;8653;-62
2023/12/11 08:17:06;;;;;;;;;;;;;;;25.90;40.01;93508.56;5059968;28;7303;-62
2023/12/11 08:19:51;;;;;;;;;;;;;;;25.85;39.97;93500.41;5052380;28;7067;-62
2023/12/11 08:22:26;;;;;;;;;;;;;;;25.89;40.53;93501.56;5044072;28;8956;-62
2023/12/11 08:25:04;;;;;;;;;;;;;;;25.93;40.09;93510.25;5045935;28;7299;-61
2023/12/11 08:28:04;;;;;;;;;;;;;;;25.95;40.32;93513.22;5067684;28;10477;-62
2023/12/11 08:30:33;;;;;;;;;;;;;;;25.97;40.44;93516.16;4990081;28;9210;-62
2023/12/11 08:33:08;;;;;;;;;;;;;;;25.97;39.67;93520.94;5001879;28;7126;-62
2023/12/11 08:35:37;;;;;;;;;;;;;;;25.93;39.78;93513.00;4992975;28;6993;-62
2023/12/11 08:38:15;;;;;;;;;;;;;;;25.89;39.94;93512.59;5006614;28;6985;-62
2023/12/11 08:40:44;;;;;;;;;;;;;;;25.94;40.25;93520.00;4985882;28;7268;-62
2023/12/11 08:43:14;;;;;;;;;;;;;;;25.94;39.92;93505.47;4985521;28;7414;-61
2023/12/11 08:45:41;;;;;;;;;;;;;;;25.95;39.78;93507.69;5007106;28;9243;-61
2023/12/11 08:48:08;;;;;;;;;;;;;;;25.94;39.47;93506.22;5018057;28;7189;-62
2023/12/11 08:50:43;;;;;;;;;;;;;;;25.94;39.91;93499.97;5000271;28;7404;-62
2023/12/11 08:54:03;;;;;;;;;;;;;;;25.94;40.22;93486.94;4995881;28;9062;-62
2023/12/11 08:56:29;;;;;;;;;;;;;;;25.93;39.76;93473.69;5009570;28;7271;-62
2023/12/11 08:58:57;;;;;;;;;;;;;;;25.88;39.72;93488.34;4993622;28;7054;-62
2023/12/11 09:01:23;;;;;;;;;;;;;;;25.90;40.47;93500.28;5008735;28;9248;-62
2023/12/11 09:03:59;;;;;;;;;;;;;;;25.87;40.33;93515.16;4992226;28;7229;-62
2023/12/11 09:06:40;;;;;;;;;;;;;;;25.87;40.11;93517.91;5032285;28;7240;-62
2023/12/11 09:09:07;;;;;;;;;;;;;;;25.86;40.58;93510.19;5048211;28;6981;-62
2023/12/11 09:11:54;;;;;;;;;;;;;;;25.86;40.43;93499.16;5045825;28;7284;-62
2023/12/11 09:14:39;;;;;;;;;;;;;;;25.94;40.05;93509.00;5058222;28;7195;-62
2023/12/11 09:17:11;;;;;;;;;;;;;;;25.94;40.23;93517.25;5064326;28;7422;-63
2023/12/11 09:19:49;;;;;;;;;;;;;;;25.92;39.72;93533.56;5044979;28;9162;-63
2023/12/11 09:22:24;;;;;;;;;;;;;;;25.96;39.75;93545.00;5052961;28;7009;-62
2023/12/11 09:24:59;;;;;;;;;;;;;;;25.93;40.30;93551.56;5042472;28;7047;-62
2023/12/11 09:27:44;;;;;;;;;;;;;;;25.96;40.45;93555.28;5045219;28;7190;-63
2023/12/11 09:30:10;;;;;;;;;;;;;;;25.89;39.70;93540.16;5065382;28;9071;-63
2023/12/11 09:32:45;;;;;;;;;;;;;;;25.85;39.99;93539.72;5056583;28;9340;-62
2023/12/11 09:35:32;;;;;;;;;;;;;;;25.91;40.42;93548.63;5057420;28;7251;-63
2023/12/11 09:38:01;;;;;;;;;;;;;;;25.94;39.79;93550.31;5057877;28;7910;-62
2023/12/11 09:40:47;;;;;;;;;;;;;;;25.96;40.08;93547.75;5050562;28;8223;-62
2023/12/11 09:43:15;;;;;;;;;;;;;;;26.00;40.27;93561.94;5048963;28;8754;-63
2023/12/11 09:45:46;;;;;;;;;;;;;;;25.99;40.29;93554.94;5052157;28;7225;-63
2023/12/11 09:48:28;;;;;;;;;;;;;;;25.98;40.24;93536.94;5050121;28;7062;-63
2023/12/11 09:51:05;;;;;;;;;;;;;;;25.99;40.03;93543.22;5045233;28;7103;-63
2023/12/11 09:53:48;;;;;;;;;;;;;;;25.99;40.23;93535.66;5054240;28;9084;-63
2023/12/11 09:56:15;;;;;;;;;;;;;;;25.97;39.97;93556.75;5050159;28;8877;-63
2023/12/11 09:58:49;;;;;;;;;;;;;;;25.99;40.15;93563.22;5062027;28;7003;-62
2023/12/11 10:01:16;;;;;;;;;;;;;;;25.99;40.08;93557.69;5060999;28;6991;-62
2023/12/11 10:04:04;;;;;;;;;;;;;;;25.99;40.29;93545.97;5047686;28;9409;-63
2023/12/11 10:06:31;;;;;;;;;;;;;;;25.99;40.34;93551.47;5043225;28;6998;-63
2023/12/11 10:09:01;;;;;;;;;;;;;;;25.99;39.97;93552.19;5044917;28;7163;-63
2023/12/11 10:12:00;;;;;;;;;;;;;;;25.99;39.60;93548.72;5050828;28;7250;-63
2023/12/11 10:14:38;;;;;;;;;;;;;;;26.00;39.48;93556.44;4985552;28;7312;-63
2023/12/11 10:17:22;;;;;;;;;;;;;;;26.02;39.82;93569.69;4966978;28;7481;-63
2023/12/11 10:19:49;;;;;;;;;;;;;;;26.02;39.94;93564.91;4983743;28;8940;-63
2023/12/11 10:22:42;;;;;;;;;;;;;;;26.02;40.21;93544.88;4990363;28;7218;-63
2023/12/11 10:25:37;;;;;;;;;;;;;;;26.01;39.54;93554.44;4977508;28;9025;-63
2023/12/11 10:28:18;;;;;;;;;;;;;;;25.97;39.61;93549.22;4987174;28;7277;-63
2023/12/11 10:34:50;;;;;;;;;;;;;;;26.00;40.38;93539.16;4952230;28;7049;-62
2023/12/11 10:37:35;;;;;;;;;;;;;;;26.00;39.57;93530.91;4934418;29;7287;-62
2023/12/11 10:40:12;;;;;;;;;;;;;;;25.99;39.80;93527.41;4951279;28;7297;-62
2023/12/11 10:43:11;;;;;;;;;;;;;;;26.00;39.63;93517.13;4934791;29;7167;-62
2023/12/11 10:45:40;;;;;;;;;;;;;;;25.98;40.29;93509.41;4895254;29;9111;-63
2023/12/11 10:48:16;;;;;;;;;;;;;;;26.02;39.89;93514.56;4895110;29;6994;-63
2023/12/11 10:50:55;;;;;;;;;;;;;;;26.00;39.80;93498.56;4920098;28;7186;-63
2023/12/11 10:53:23;;;;;;;;;;;;;;;25.98;39.92;93486.59;4933530;29;7270;-63
2023/12/11 10:55:53;;;;;;;;;;;;;;;25.99;39.92;93488.81;4946118;28;7230;-62
2023/12/11 10:58:20;;;;;;;;;;;;;;;25.98;40.03;93470.06;4934419;28;7686;-62
2023/12/11 11:00:47;;;;;;;;;;;;;;;25.96;40.17;93473.38;4931998;28;7215;-63
2023/12/11 11:03:15;;;;;;;;;;;;;;;25.98;39.68;93459.81;4941507;28;9096;-63
2023/12/11 11:05:46;;;;;;;;;;;;;;;25.99;39.97;93455.75;4945089;28;8796;-63
2023/12/11 11:08:52;;;;;;;;;;;;;;;25.97;40.51;93463.81;4935560;28;7226;-63
2023/12/11 11:11:40;;;;;;;;;;;;;;;25.98;40.20;93487.34;4975984;28;9129;-63
2023/12/11 11:14:38;;;;;;;;;;;;;;;25.99;40.14;93518.41;4992440;28;7106;-63
2023/12/11 11:17:05;;;;;;;;;;;;;;;26.00;40.58;93523.38;4989399;28;8840;-63
2023/12/11 11:19:31;;;;;;;;;;;;;;;25.99;40.47;93527.41;4994157;28;7238;-63
2023/12/11 11:22:18;;;;;;;;;;;;;;;26.00;40.37;93525.38;5009835;28;6950;-63
2023/12/11 11:24:44;;;;;;;;;;;;;;;26.01;39.90;93516.56;5075037;28;7985;-63
2023/12/11 11:27:43;;;;;;;;;;;;;;;26.01;39.83;93507.59;5056398;28;9239;-63
2023/12/11 11:30:10;;;;;;;;;;;;;;;25.97;40.35;93527.19;5062257;28;7254;-63
2023/12/11 11:32:56;;;;;;;;;;;;;;;25.99;40.16;93510.16;5056418;28;7325;-63
2023/12/11 11:35:54;;;;;;;;;;;;;;;25.98;39.77;93525.94;5070106;28;8418;-63
2023/12/11 11:38:52;;;;;;;;;;;;;;;25.98;40.50;93545.22;5059086;28;7206;-63
2023/12/11 11:41:51;;;;;;;;;;;;;;;25.99;40.63;93554.94;5057741;28;9186;-63
2023/12/11 11:44:17;;;;;;;;;;;;;;;25.96;40.22;93549.78;5063825;28;7229;-63
2023/12/11 11:46:58;;;;;;;;;;;;;;;25.95;40.14;93542.78;5059249;28;7414;-62
2023/12/11 11:49:34;;;;;;;;;;;;;;;25.99;40.55;93543.22;5073751;28;7255;-64
2023/12/11 11:52:27;;;;;;;;;;;;;;;25.98;39.72;93542.47;5069117;28;8541;-63
2023/12/11 11:55:25;;;;;;;;;;;;;;;26.00;39.82;93556.44;5049828;28;7445;-63
2023/12/11 11:57:58;;;;;;;;;;;;;;;25.99;40.53;93565.97;5056007;28;9888;-63
2023/12/11 12:00:37;;;;;;;;;;;;;;;25.96;40.50;93545.00;5056661;28;7103;-63
2023/12/11 12:03:20;;;;;;;;;;;;;;;25.97;40.64;93518.91;5078185;28;9102;-63
2023/12/11 12:05:59;;;;;;;;;;;;;;;25.95;40.46;93529.00;5065941;28;7005;-63
2023/12/11 12:08:53;;;;;;;;;;;;;;;25.96;40.48;93550.53;5071921;28;7255;-62
2023/12/11 12:11:29;;;;;;;;;;;;;;;25.99;40.26;93543.94;5054757;28;8747;-64
2023/12/11 12:14:27;;;;;;;;;;;;;;;26.03;40.59;93532.59;5058219;28;9126;-63
2023/12/11 12:16:55;;;;;;;;;;;;;;;26.03;40.14;93529.84;5038946;28;8643;-62
2023/12/11 12:19:33;;;;;;;;;;;;;;;26.05;40.21;93530.03;5060425;28;9061;-63
2023/12/11 12:22:04;;;;;;;;;;;;;;;26.01;40.12;93524.84;5061076;28;7040;-63
2023/12/11 12:24:40;;;;;;;;;;;;;;;26.01;40.20;93532.38;5071949;28;7037;-63
2023/12/11 12:27:12;;;;;;;;;;;;;;;26.01;40.09;93535.88;5050969;28;7260;-62
2023/12/11 12:29:42;;;;;;;;;;;;;;;26.03;40.19;93527.81;5063130;28;7072;-63
2023/12/11 12:32:54;;;;;;;;;;;;;;;26.06;40.38;93523.25;5079576;28;7271;-62
2023/12/11 12:35:36;;;;;;;;;;;;;;;26.03;40.13;93538.81;4989595;28;7200;-54
2023/12/11 12:38:07;;;;;;;;;;;;;;;26.04;40.49;93558.84;4978906;28;8174;-59
2023/12/11 12:40:54;;;;;;;;;;;;;;;26.03;40.28;93549.13;4982955;28;8636;-59
2023/12/11 12:43:25;;;;;;;;;;;;;;;26.01;40.43;93546.16;4996947;28;8529;-59
2023/12/11 12:45:59;;;;;;;;;;;;;;;25.99;40.10;93524.63;4993356;28;7223;-59
2023/12/11 12:48:31;;;;;;;;;;;;;;;26.01;40.19;93524.84;4991013;28;7495;-59
2023/12/11 12:51:11;;;;;;;;;;;;;;;26.02;40.04;93520.81;4965225;28;6990;-59
2023/12/11 12:53:54;;;;;;;;;;;;;;;26.01;40.44;93524.84;4985896;28;7049;-59
2023/12/11 12:56:22;;;;;;;;;;;;;;;26.01;39.93;93521.38;4983216;28;9116;-59
2023/12/11 12:58:49;;;;;;;;;;;;;;;26.00;40.74;93531.66;4975531;28;7773;-59
2023/12/11 13:01:19;;;;;;;;;;;;;;;26.01;40.17;93524.84;4978492;28;7180;-60
2023/12/11 13:04:01;;;;;;;;;;;;;;;26.02;40.64;93537.34;4977502;28;7233;-60
2023/12/11 13:06:30;;;;;;;;;;;;;;;26.00;40.11;93537.16;4992835;28;7673;-60
2023/12/11 13:09:01;;;;;;;;;;;;;;;26.00;40.33;93536.41;4981820;28;7282;-59
2023/12/11 13:11:47;;;;;;;;;;;;;;;26.00;40.52;93528.88;4998820;28;7610;-59
2023/12/11 13:14:13;;;;;;;;;;;;;;;26.02;40.36;93542.88;5066702;28;7707;-59
2023/12/11 13:16:47;;;;;;;;;;;;;;;26.03;40.71;93552.59;5061759;28;7081;-59
2023/12/11 13:19:13;;;;;;;;;;;;;;;26.00;40.05;93545.41;5050596;28;9269;-59
2023/12/11 13:21:43;;;;;;;;;;;;;;;26.02;40.28;93558.66;5049279;28;7008;-59
2023/12/11 13:24:22;;;;;;;;;;;;;;;26.04;40.70;93558.84;5068813;28;7272;-59
2023/12/11 13:26:52;;;;;;;;;;;;;;;26.04;40.13;93561.63;5048832;28;9501;-59
2023/12/11 13:29:27;;;;;;;;;;;;;;;26.04;40.37;93578.16;5058356;28;8847;-60
2023/12/11 13:31:59;;;;;;;;;;;;;;;26.05;40.63;93580.41;5049810;28;9183;-60
2023/12/11 13:34:45;;;;;;;;;;;;;;;26.04;40.58;93591.94;5070412;28;7183;-60
2023/12/11 13:37:32;;;;;;;;;;;;;;;26.04;39.84;93595.44;5050269;28;9105;-60
2023/12/11 13:40:05;;;;;;;;;;;;;;;26.02;39.98;93586.22;5073999;28;6902;-60
2023/12/11 13:42:31;;;;;;;;;;;;;;;26.03;40.58;93593.22;5045215;28;7086;-60
2023/12/11 13:45:01;;;;;;;;;;;;;;;26.00;39.97;93588.75;5056586;28;7219;-60
2023/12/11 13:47:39;;;;;;;;;;;;;;;26.07;40.08;93583.34;5064620;28;8666;-60